Time;durP1;ratioP1;P1;durP2;ratioP2;P2;SDS_P1;SDS_P2;PMS_P1;PMS_P2;Temp;Humidity;BMP_temperature;BMP_pressure;BME280_temperature;BME280_humidity;BME280_pressure;Samples;Min_cycle;Max_cycle;Signal;HPM_P1;HPM_P2
2022/05/03 00:00:25;;;;;;;12.43;11.20;;;;;;;16.44;52.69;97244.88;5007501;28;20419;-69
2022/05/03 00:02:59;;;;;;;11.07;9.97;;;;;;;16.50;52.60;97243.28;4996282;28;20432;-69
2022/05/03 00:05:53;;;;;;;11.97;10.77;;;;;;;16.48;52.59;97245.31;5013541;28;20199;-68
2022/05/03 00:08:42;;;;;;;13.03;11.73;;;;;;;16.56;52.58;97246.00;5013029;28;20458;-71
2022/05/03 00:11:29;;;;;;;13.33;11.33;;;;;;;16.52;52.70;97244.72;5013526;28;20824;-71
2022/05/03 00:14:15;;;;;;;13.70;11.50;;;;;;;16.45;52.96;97240.38;4996066;28;20517;-70
2022/05/03 00:16:41;;;;;;;14.20;10.73;;;;;;;16.42;52.60;97234.44;4994630;28;20424;-70
2022/05/03 00:19:07;;;;;;;13.33;11.07;;;;;;;16.24;53.17;97239.38;5012642;28;20537;-70
2022/05/03 00:21:36;;;;;;;13.97;10.63;;;;;;;15.92;54.08;97238.81;4995443;28;20874;-70
2022/05/03 00:24:02;;;;;;;11.60;10.50;;;;;;;16.08;53.67;97241.22;4995326;28;20180;-70
2022/05/03 00:26:28;;;;;;;12.37;10.93;;;;;;;16.19;53.36;97228.53;5012778;28;20423;-70
2022/05/03 00:28:56;;;;;;;11.83;10.63;;;;;;;16.28;53.07;97232.69;5012960;28;20967;-70
2022/05/03 00:31:22;;;;;;;14.33;10.73;;;;;;;16.34;53.15;97226.66;4996476;28;20470;-70
2022/05/03 00:33:48;;;;;;;13.13;11.30;;;;;;;16.28;52.86;97227.38;5013058;28;20427;-68
2022/05/03 00:36:14;;;;;;;15.20;11.43;;;;;;;16.29;53.22;97218.44;4978605;28;20430;-71
2022/05/03 00:38:39;;;;;;;14.37;11.67;;;;;;;16.27;53.17;97225.75;5012495;28;20255;-71
2022/05/03 00:41:08;;;;;;;12.07;10.87;;;;;;;16.35;52.88;97228.28;4944337;28;20269;-70
2022/05/03 00:43:44;;;;;;;11.83;10.63;;;;;;;16.24;52.96;97218.22;4995379;28;20647;-70
2022/05/03 00:46:16;;;;;;;12.43;11.07;;;;;;;16.13;53.35;97227.44;4978667;28;20438;-70
2022/05/03 00:48:50;;;;;;;12.60;11.30;;;;;;;16.10;53.70;97225.19;5012446;28;20451;-71
2022/05/03 00:51:17;;;;;;;12.23;11.03;;;;;;;16.14;53.32;97231.75;4978460;28;20482;-71
2022/05/03 00:53:50;;;;;;;12.00;10.90;;;;;;;15.93;53.49;97229.88;4997628;28;20457;-71
2022/05/03 00:56:38;;;;;;;10.87;9.87;;;;;;;15.93;53.35;97232.50;4978223;28;20811;-70
2022/05/03 00:59:42;;;;;;;11.10;10.07;;;;;;;15.97;53.35;97231.16;5012101;28;20496;-70
2022/05/03 01:02:08;;;;;;;14.40;10.30;;;;;;;15.94;53.87;97231.50;4961843;28;20457;-70
2022/05/03 01:04:39;;;;;;;13.83;10.37;;;;;;;15.96;53.69;97227.66;5011777;28;20466;-70
2022/05/03 01:07:28;;;;;;;14.70;10.83;;;;;;;15.96;53.56;97237.44;4993517;28;20581;-71
2022/05/03 01:10:06;;;;;;;12.43;11.17;;;;;;;15.90;53.71;97238.16;5012010;28;20522;-69
2022/05/03 01:12:44;;;;;;;11.93;10.73;;;;;;;15.82;53.66;97234.59;5012008;28;20525;-70
2022/05/03 01:15:11;;;;;;;11.73;10.60;;;;;;;15.70;53.60;97243.16;5011683;28;20964;-70
2022/05/03 01:17:41;;;;;;;11.40;10.20;;;;;;;15.70;53.81;97243.16;5010951;28;20455;-70
2022/05/03 01:20:07;;;;;;;14.40;11.27;;;;;;;15.80;53.55;97241.09;5011737;28;20431;-70
2022/05/03 01:22:51;;;;;;;13.40;11.17;;;;;;;15.85;53.55;97232.63;5011431;28;20510;-69
2022/05/03 01:25:43;;;;;;;12.67;10.10;;;;;;;15.82;53.14;97231.97;5011574;28;20510;-69
2022/05/03 01:28:46;;;;;;;12.37;11.17;;;;;;;15.76;53.57;97227.41;5010405;28;20455;-70
2022/05/03 01:31:13;;;;;;;12.10;10.90;;;;;;;15.62;53.51;97222.97;5011462;28;20529;-69
2022/05/03 01:33:42;;;;;;;11.70;10.50;;;;;;;15.61;53.61;97232.72;5010875;28;20432;-69
2022/05/03 01:36:09;;;;;;;11.20;10.10;;;;;;;15.52;53.76;97226.72;4991855;28;20427;-69
2022/05/03 01:38:46;;;;;;;12.70;10.63;;;;;;;15.54;53.51;97225.72;5010580;28;20447;-70
2022/05/03 01:41:30;;;;;;;10.80;9.73;;;;;;;15.42;53.79;97228.00;5010993;28;20477;-70
2022/05/03 01:44:18;;;;;;;11.40;10.20;;;;;;;15.27;54.32;97230.63;5011432;28;20431;-70
2022/05/03 01:46:44;;;;;;;13.37;10.60;;;;;;;15.38;53.67;97224.88;4987908;28;20435;-70
2022/05/03 01:52:27;;;;;;;10.87;9.77;;;;;;;15.26;53.98;97223.69;4996464;28;20679;-71
2022/05/03 01:55:28;;;;;;;11.13;10.03;;;;;;;15.25;54.10;97228.16;5011432;28;20469;-70
2022/05/03 01:58:11;;;;;;;11.57;10.37;;;;;;;15.25;53.89;97228.16;4977408;28;20459;-69
2022/05/03 02:00:36;;;;;;;11.10;10.00;;;;;;;15.23;54.15;97224.88;5006378;28;20507;-69
2022/05/03 02:03:12;;;;;;;11.20;10.10;;;;;;;15.16;53.89;97222.16;4993410;28;20858;-69
2022/05/03 02:05:58;;;;;;;12.40;10.97;;;;;;;15.19;53.89;97227.09;4974050;28;20272;-70
2022/05/03 02:08:42;;;;;;;11.40;10.30;;;;;;;15.26;53.85;97218.41;5011018;28;20438;-70
2022/05/03 02:11:32;;;;;;;13.00;10.47;;;;;;;15.10;53.81;97216.78;5010804;28;20455;-70
2022/05/03 02:17:09;;;;;;;12.03;10.83;;;;;;;15.07;54.10;97215.31;5010731;28;20481;-70
2022/05/03 02:19:48;;;;;;;12.20;10.93;;;;;;;14.91;54.09;97226.88;4986910;28;20495;-70
2022/05/03 02:22:48;;;;;;;13.40;10.70;;;;;;;15.00;54.04;97222.31;4991374;28;20423;-68
2022/05/03 02:25:35;;;;;;;11.30;10.20;;;;;;;15.00;53.93;97228.44;4977039;28;20470;-68
2022/05/03 02:28:10;;;;;;;11.63;10.43;;;;;;;15.03;53.58;97224.59;4992640;28;20509;-68
2022/05/03 02:30:36;;;;;;;12.33;10.70;;;;;;;14.94;53.85;97233.59;4993063;28;20462;-68
2022/05/03 02:33:04;;;;;;;12.00;9.90;;;;;;;14.92;53.85;97241.72;4992513;28;20447;-68
2022/05/03 02:35:34;;;;;;;11.93;10.77;;;;;;;14.73;54.40;97240.38;5010304;28;20195;-69
2022/05/03 02:38:06;;;;;;;14.43;11.00;;;;;;;14.81;54.16;97245.59;5010307;28;20478;-69
2022/05/03 02:40:33;;;;;;;12.73;11.23;;;;;;;14.81;53.82;97248.22;5014789;28;20419;-68
2022/05/03 02:42:59;;;;;;;12.00;10.73;;;;;;;14.77;54.02;97246.94;5014494;28;20423;-69
2022/05/03 02:45:25;;;;;;;12.43;11.13;;;;;;;14.86;53.99;97237.97;4997348;28;20419;-69
2022/05/03 02:48:06;;;;;;;12.60;11.30;;;;;;;14.99;53.60;97239.16;5016750;28;20442;-69
2022/05/03 02:50:54;;;;;;;11.23;10.23;;;;;;;14.96;53.88;97228.97;5014486;28;20528;-69
2022/05/03 02:53:38;;;;;;;13.57;11.83;;;;;;;14.99;53.74;97223.34;4996458;28;20438;-69
2022/05/03 02:56:17;;;;;;;12.60;11.37;;;;;;;15.05;53.65;97223.44;5014444;28;20423;-68
2022/05/03 02:59:19;;;;;;;12.33;11.13;;;;;;;14.93;53.37;97226.69;4996895;28;20496;-70
2022/05/03 03:02:07;;;;;;;13.13;11.67;;;;;;;14.79;53.67;97223.84;5014192;28;20407;-70
2022/05/03 03:04:46;;;;;;;12.60;11.40;;;;;;;14.73;53.55;97220.09;4996418;28;20428;-70
2022/05/03 03:07:17;;;;;;;14.80;11.50;;;;;;;14.73;53.83;97225.38;5013646;28;20435;-70
2022/05/03 03:09:51;;;;;;;14.20;11.90;;;;;;;14.76;53.81;97229.47;5016710;28;20506;-70
2022/05/03 03:12:22;;;;;;;14.87;12.50;;;;;;;14.73;53.79;97219.28;5014030;28;20832;-70
2022/05/03 03:14:48;;;;;;;13.50;12.20;;;;;;;14.74;53.86;97223.56;4996872;28;20563;-70
2022/05/03 03:17:20;;;;;;;13.73;12.43;;;;;;;14.73;53.87;97221.94;4979679;28;20453;-70
2022/05/03 03:20:02;;;;;;;13.80;11.70;;;;;;;14.67;54.50;97220.81;5013987;28;20906;-70
2022/05/03 03:22:45;;;;;;;12.70;11.50;;;;;;;14.69;54.31;97220.63;5005839;28;20518;-70
2022/05/03 03:25:15;;;;;;;14.10;12.70;;;;;;;14.47;54.47;97216.97;5013666;28;20945;-68
2022/05/03 03:27:42;;;;;;;13.07;11.20;;;;;;;14.42;54.37;97213.06;5013394;28;20447;-71
2022/05/03 03:30:10;;;;;;;15.37;12.47;;;;;;;14.52;54.01;97212.00;4995942;28;20427;-70
2022/05/03 03:32:39;;;;;;;13.70;12.30;;;;;;;14.36;54.16;97210.31;5016392;28;20493;-70
2022/05/03 03:35:05;;;;;;;13.77;12.37;;;;;;;14.37;54.44;97210.13;4999122;28;20427;-70
2022/05/03 03:37:33;;;;;;;13.07;11.50;;;;;;;14.41;54.15;97210.59;5013516;28;20446;-71
2022/05/03 03:40:00;;;;;;;17.30;12.27;;;;;;;14.44;53.91;97215.53;4964373;28;20424;-71
2022/05/03 03:42:28;;;;;;;12.57;11.27;;;;;;;14.18;54.11;97214.06;5013875;28;20432;-69
2022/05/03 03:44:59;;;;;;;12.40;10.83;;;;;;;14.27;54.31;97217.47;4996125;28;20477;-70
2022/05/03 03:47:25;;;;;;;12.60;11.30;;;;;;;14.37;53.91;97220.69;5013526;28;20447;-72
2022/05/03 03:49:51;;;;;;;13.70;11.50;;;;;;;14.36;54.07;97224.31;4980320;28;20436;-71
2022/05/03 03:52:16;;;;;;;13.40;12.07;;;;;;;14.36;53.86;97228.78;5011098;28;20216;-70
2022/05/03 03:54:42;;;;;;;12.57;11.23;;;;;;;14.23;53.96;97235.44;4979407;28;20945;-71
2022/05/03 03:57:08;;;;;;;12.70;11.40;;;;;;;14.23;53.65;97234.63;5012620;28;20196;-70
2022/05/03 03:59:36;;;;;;;14.90;11.80;;;;;;;14.23;54.04;97224.91;5011966;28;20227;-70
2022/05/03 04:02:02;;;;;;;14.73;13.23;;;;;;;14.27;54.20;97231.44;5012979;28;20412;-71
2022/05/03 04:04:31;;;;;;;13.07;11.67;;;;;;;14.27;54.05;97230.66;5012318;28;20796;-69
2022/05/03 04:06:58;;;;;;;13.93;12.53;;;;;;;14.27;54.45;97225.38;5013084;28;20647;-69
2022/05/03 04:09:24;;;;;;;15.20;13.60;;;;;;;14.27;54.65;97231.44;5005853;28;20525;-70
2022/05/03 04:11:50;;;;;;;15.10;13.60;;;;;;;14.25;54.65;97224.72;5013236;28;20940;-70
2022/05/03 04:14:15;;;;;;;16.30;14.60;;;;;;;14.31;54.44;97231.91;5010831;28;20180;-71
2022/05/03 04:16:41;;;;;;;15.83;13.40;;;;;;;14.20;55.14;97225.25;5012580;28;20216;-70
2022/05/03 04:19:07;;;;;;;20.50;13.77;;;;;;;14.17;54.86;97233.50;5013096;28;20246;-69
2022/05/03 04:21:33;;;;;;;14.67;13.13;;;;;;;14.17;55.16;97228.22;5015286;28;20428;-70
2022/05/03 04:23:59;;;;;;;15.67;14.00;;;;;;;14.14;55.05;97228.56;5011638;28;20426;-70
2022/05/03 04:26:25;;;;;;;15.20;13.30;;;;;;;14.14;55.01;97225.94;5004558;28;20172;-70
2022/05/03 04:28:55;;;;;;;16.10;12.87;;;;;;;14.24;54.58;97223.88;5013093;28;20204;-70
2022/05/03 04:31:24;;;;;;;15.57;13.90;;;;;;;14.26;54.57;97229.00;5012285;28;20459;-70
2022/05/03 04:33:50;;;;;;;15.30;13.60;;;;;;;14.24;54.86;97226.53;5011669;28;20435;-69
2022/05/03 04:36:15;;;;;;;16.10;13.60;;;;;;;14.34;54.98;97225.50;5012306;28;20471;-70
2022/05/03 04:38:41;;;;;;;18.37;15.80;;;;;;;14.40;54.75;97225.59;5012750;28;20196;-70
2022/05/03 04:41:06;;;;;;;21.20;15.93;;;;;;;14.27;55.05;97230.66;5011644;28;20168;-70
2022/05/03 04:43:32;;;;;;;18.90;15.63;;;;;;;14.36;55.00;97234.84;4996489;28;20583;-71
2022/05/03 04:45:59;;;;;;;17.60;13.97;;;;;;;14.08;55.46;97235.34;4996838;28;20265;-72
2022/05/03 04:48:24;;;;;;;18.00;13.87;;;;;;;14.20;55.22;97241.06;4986960;28;20563;-70
2022/05/03 04:50:49;;;;;;;15.20;12.40;;;;;;;14.29;54.84;97245.28;5012658;28;20466;-71
2022/05/03 04:53:16;;;;;;;18.87;13.43;;;;;;;14.38;54.77;97253.97;5012460;28;20181;-70
2022/05/03 04:55:42;;;;;;;20.17;12.93;;;;;;;14.47;54.80;97249.47;5011908;28;20188;-71
2022/05/03 04:58:07;;;;;;;18.30;14.77;;;;;;;14.46;55.28;97247.81;5011380;28;20447;-70
2022/05/03 05:00:33;;;;;;;18.97;15.97;;;;;;;14.55;55.27;97252.03;5012744;28;20658;-71
2022/05/03 05:02:59;;;;;;;15.53;13.67;;;;;;;14.54;55.90;97247.75;4994786;28;20255;-74
2022/05/03 05:05:24;;;;;;;16.30;13.57;;;;;;;14.59;55.55;97252.47;5009770;28;20260;-71
2022/05/03 05:07:50;;;;;;;18.90;14.00;;;;;;;14.50;55.34;97253.53;5011787;28;20204;-71
2022/05/03 05:10:24;;;;;;;16.70;14.20;;;;;;;14.50;55.54;97257.00;4994709;28;20195;-70
2022/05/03 05:12:54;;;;;;;15.30;13.70;;;;;;;14.55;55.59;97254.66;5011979;28;20255;-71
2022/05/03 05:15:23;;;;;;;17.00;13.97;;;;;;;14.67;55.33;97254.25;4993301;28;20438;-71
2022/05/03 05:17:49;;;;;;;16.20;14.53;;;;;;;14.84;55.22;97262.88;4994774;28;20443;-70
2022/05/03 05:20:14;;;;;;;17.93;16.03;;;;;;;14.90;55.61;97262.97;4996000;28;21006;-71
2022/05/03 05:22:42;;;;;;;22.90;16.33;;;;;;;14.96;55.55;97263.28;5011800;28;20176;-71
2022/05/03 05:25:08;;;;;;;16.23;14.60;;;;;;;15.03;55.58;97262.38;5011874;28;20184;-71
2022/05/03 05:27:33;;;;;;;16.47;14.73;;;;;;;15.08;55.51;97259.19;5011541;28;20462;-69
2022/05/03 05:30:00;;;;;;;17.17;15.27;;;;;;;15.18;55.48;97262.41;4977139;28;20435;-75
2022/05/03 05:32:25;;;;;;;21.53;14.80;;;;;;;15.31;55.56;97264.41;5016195;28;20664;-69
2022/05/03 05:34:51;;;;;;;17.90;15.20;;;;;;;15.42;55.29;97264.97;5020267;28;20435;-69
2022/05/03 05:37:16;;;;;;;18.53;14.70;;;;;;;15.52;55.25;97258.41;5010914;28;20188;-75
2022/05/03 05:39:42;;;;;;;19.53;15.13;;;;;;;15.65;55.40;97270.13;5011828;28;20188;-69
2022/05/03 05:42:07;;;;;;;15.30;13.80;;;;;;;15.68;55.14;97263.69;4993095;28;20195;-70
2022/05/03 05:44:33;;;;;;;15.10;13.60;;;;;;;15.70;55.78;97264.31;5012084;28;20269;-71
2022/05/03 05:46:58;;;;;;;17.67;13.97;;;;;;;15.88;55.55;97263.97;5011549;28;20271;-70
2022/05/03 05:49:24;;;;;;;24.17;18.10;;;;;;;15.99;55.53;97255.56;5010401;28;20229;-71
2022/05/03 05:51:49;;;;;;;16.40;14.67;;;;;;;16.19;55.52;97265.53;5006416;28;20559;-72
2022/05/03 05:54:17;;;;;;;21.50;15.00;;;;;;;16.44;55.59;97263.38;5011126;28;20296;-70
2022/05/03 05:56:44;;;;;;;19.00;15.50;;;;;;;16.72;55.05;97263.44;5010868;28;20177;-70
2022/05/03 05:59:10;;;;;;;20.47;15.30;;;;;;;16.99;54.83;97261.03;5010487;28;20477;-73
2022/05/03 06:01:40;;;;;;;25.63;15.53;;;;;;;17.27;54.74;97272.63;5007036;28;20912;-71
2022/05/03 06:04:06;;;;;;;19.10;15.40;;;;;;;17.52;54.28;97270.31;5010585;28;20259;-68
2022/05/03 06:06:32;;;;;;;20.27;15.10;;;;;;;17.76;53.44;97261.09;4993158;28;20895;-68
2022/05/03 06:08:59;;;;;;;18.80;16.30;;;;;;;17.92;52.25;97272.38;5008186;28;20970;-69
2022/05/03 06:11:24;;;;;;;17.00;13.40;;;;;;;18.12;52.16;97267.19;5009448;28;21139;-70
2022/05/03 06:13:49;;;;;;;17.83;14.53;;;;;;;18.30;51.71;97265.78;5011639;28;20518;-70
2022/05/03 06:16:15;;;;;;;19.20;14.20;;;;;;;18.47;51.00;97272.38;5010918;28;20188;-71
2022/05/03 06:18:41;;;;;;;16.40;14.10;;;;;;;18.70;51.39;97264.03;4994151;28;20270;-71
2022/05/03 06:21:09;;;;;;;19.10;13.40;;;;;;;18.94;51.10;97267.16;5013736;28;20207;-68
2022/05/03 06:23:34;;;;;;;17.67;12.77;;;;;;;19.09;50.58;97261.63;5011100;28;20203;-70
2022/05/03 06:26:01;;;;;;;11.33;10.23;;;;;;;19.21;50.49;97261.81;4993422;28;20435;-68
2022/05/03 06:28:26;;;;;;;16.70;14.50;;;;;;;19.30;49.32;97270.38;5010732;28;20227;-69
2022/05/03 06:30:52;;;;;;;16.83;15.13;;;;;;;19.30;48.72;97267.72;4993306;28;20459;-69
2022/05/03 06:33:17;;;;;;;15.90;14.13;;;;;;;19.32;48.10;97265.66;4992878;28;20266;-69
2022/05/03 06:35:43;;;;;;;13.63;12.27;;;;;;;19.46;48.08;97275.25;4993475;28;20569;-69
2022/05/03 06:38:08;;;;;;;14.00;11.53;;;;;;;19.56;48.43;97276.66;4993230;28;20200;-70
2022/05/03 06:40:33;;;;;;;13.07;11.80;;;;;;;19.64;47.03;97271.13;5011060;28;20292;-69
2022/05/03 06:42:59;;;;;;;15.83;12.73;;;;;;;19.71;46.57;97274.59;5013352;28;20183;-72
2022/05/03 06:45:24;;;;;;;16.57;13.37;;;;;;;19.70;46.28;97275.59;5010853;28;20189;-70
2022/05/03 06:47:50;;;;;;;13.97;12.57;;;;;;;19.75;46.71;97274.97;5011046;28;20200;-69
2022/05/03 06:50:16;;;;;;;13.57;12.37;;;;;;;19.81;46.13;97271.50;4945051;28;20185;-68
2022/05/03 06:52:43;;;;;;;14.33;12.93;;;;;;;19.89;46.39;97271.28;5010978;28;20212;-69
2022/05/03 06:55:09;;;;;;;15.00;12.63;;;;;;;19.94;45.51;97281.28;5010624;28;20435;-69
2022/05/03 06:57:35;;;;;;;12.97;11.77;;;;;;;20.12;44.62;97271.81;5007171;28;20542;-69
2022/05/03 07:00:02;;;;;;;15.30;12.10;;;;;;;20.28;44.68;97279.31;5010492;28;21001;-70
2022/05/03 07:02:30;;;;;;;23.97;12.10;;;;;;;20.42;45.05;97266.72;5010222;28;20185;-69
2022/05/03 07:04:56;;;;;;;13.10;11.80;;;;;;;20.64;44.22;97269.03;5010056;28;21088;-69
2022/05/03 07:07:21;;;;;;;18.50;13.30;;;;;;;20.75;44.23;97275.56;5008221;28;20435;-70
2022/05/03 07:09:47;;;;;;;13.90;11.93;;;;;;;20.78;44.37;97270.63;4991672;28;20438;-68
2022/05/03 07:12:12;;;;;;;13.00;11.80;;;;;;;21.10;43.91;97275.91;4991567;28;20577;-71
2022/05/03 07:14:38;;;;;;;13.10;11.80;;;;;;;21.41;43.63;97274.16;5009292;28;20263;-69
2022/05/03 07:17:04;;;;;;;13.97;12.40;;;;;;;21.65;43.07;97279.69;5008667;28;20239;-68
2022/05/03 07:24:57;;;;;;;16.90;11.40;;;;;;;22.24;41.76;97273.88;5011930;28;20936;-69
2022/05/03 07:27:23;;;;;;;13.60;11.33;;;;;;;22.39;40.91;97268.13;5013698;28;20518;-70
2022/05/03 07:29:49;;;;;;;12.43;11.07;;;;;;;22.57;41.26;97283.31;5016282;28;20193;-67
2022/05/03 07:32:14;;;;;;;17.00;11.90;;;;;;;22.43;40.45;97273.84;5009627;28;20252;-69
2022/05/03 07:34:40;;;;;;;14.13;10.83;;;;;;;22.78;40.40;97279.31;5013751;28;20262;-69
2022/05/03 07:37:05;;;;;;;12.50;11.30;;;;;;;23.06;40.22;97283.16;5009984;28;20192;-70
2022/05/03 07:39:31;;;;;;;11.53;10.43;;;;;;;23.29;39.74;97281.59;5013676;28;20295;-69
2022/05/03 07:41:57;;;;;;;12.07;10.93;;;;;;;23.38;39.14;97290.06;5012289;28;20172;-69
2022/05/03 07:44:24;;;;;;;14.30;10.30;;;;;;;23.34;38.49;97287.03;5004300;28;20204;-70
2022/05/03 07:46:49;;;;;;;13.80;10.03;;;;;;;23.31;39.08;97291.00;5013205;28;20785;-70
2022/05/03 07:49:15;;;;;;;13.40;11.10;;;;;;;23.23;39.02;97287.84;5011538;28;20792;-69
2022/05/03 07:51:41;;;;;;;11.47;10.37;;;;;;;23.19;39.33;97290.16;5013278;28;20261;-69
2022/05/03 07:54:08;;;;;;;11.90;10.77;;;;;;;23.24;38.85;97289.50;5013047;28;20184;-69
2022/05/03 07:56:33;;;;;;;12.80;10.37;;;;;;;23.20;39.13;97296.34;5012914;28;20419;-68
2022/05/03 07:58:59;;;;;;;13.47;10.73;;;;;;;23.13;39.35;97305.25;5012751;28;20447;-72
2022/05/03 08:01:24;;;;;;;14.40;10.53;;;;;;;23.10;39.04;97305.72;5013119;28;20277;-67
2022/05/03 08:03:50;;;;;;;13.03;10.03;;;;;;;23.05;38.85;97310.13;4992129;28;20185;-67
2022/05/03 08:06:15;;;;;;;15.50;10.77;;;;;;;22.93;39.32;97304.78;5011688;28;20292;-69
2022/05/03 08:08:41;;;;;;;12.03;9.60;;;;;;;22.90;39.17;97305.22;5013005;28;20254;-70
2022/05/03 08:11:06;;;;;;;14.63;10.53;;;;;;;22.92;39.11;97314.63;5016932;28;20553;-69
2022/05/03 08:13:32;;;;;;;11.30;9.63;;;;;;;22.94;39.67;97306.38;5012996;28;20267;-71
2022/05/03 08:15:57;;;;;;;16.00;10.40;;;;;;;22.88;39.48;97305.44;5012950;28;20188;-70
2022/05/03 08:18:23;;;;;;;19.10;11.50;;;;;;;22.91;39.85;97313.00;5011966;28;20204;-71
2022/05/03 08:20:48;;;;;;;10.70;9.20;;;;;;;22.91;39.97;97307.66;5015342;28;20176;-69
2022/05/03 08:23:14;;;;;;;11.27;10.20;;;;;;;22.98;39.15;97315.56;5011719;28;20211;-70
2022/05/03 08:25:39;;;;;;;9.93;8.87;;;;;;;22.94;39.61;97309.06;5012820;28;20191;-68
2022/05/03 08:28:05;;;;;;;10.07;8.80;;;;;;;23.01;39.00;97315.13;4993603;28;20232;-69
2022/05/03 08:30:31;;;;;;;9.47;8.43;;;;;;;23.08;38.41;97315.00;5009738;28;20435;-69
2022/05/03 08:32:56;;;;;;;8.23;7.43;;;;;;;23.25;38.60;97318.66;5009915;28;20203;-69
2022/05/03 08:35:24;;;;;;;11.97;7.90;;;;;;;23.47;38.32;97321.56;5011880;28;20315;-69
2022/05/03 08:43:18;;;;;;;5.10;4.70;;;;;;;23.93;34.36;97312.94;5012217;28;20435;-69
2022/05/03 08:45:48;;;;;;;5.37;4.80;;;;;;;24.11;34.87;97320.03;5007921;28;20432;-70
2022/05/03 08:48:16;;;;;;;6.07;5.13;;;;;;;24.43;33.82;97316.88;5010648;28;20213;-69
2022/05/03 08:50:42;;;;;;;6.23;4.97;;;;;;;24.68;33.17;97318.41;5012370;28;21122;-69
2022/05/03 08:53:07;;;;;;;5.37;4.83;;;;;;;24.88;33.45;97307.25;5015292;28;20465;-69
2022/05/03 08:55:33;;;;;;;5.30;4.80;;;;;;;25.10;32.22;97310.03;5008092;28;20555;-70
2022/05/03 08:57:58;;;;;;;4.97;4.57;;;;;;;25.34;31.66;97315.22;4994272;28;20200;-70
2022/05/03 09:00:25;;;;;;;6.57;4.60;;;;;;;25.55;31.35;97313.69;5006071;28;20184;-70
2022/05/03 09:02:55;;;;;;;4.60;4.10;;;;;;;25.51;31.29;97315.22;5009233;28;20186;-69
2022/05/03 09:05:22;;;;;;;5.67;4.63;;;;;;;25.68;31.19;97317.06;5011662;28;20514;-71
2022/05/03 09:07:48;;;;;;;3.83;3.50;;;;;;;25.83;30.24;97316.47;5006594;28;20872;-68
2022/05/03 09:10:20;;;;;;;5.10;3.53;;;;;;;26.04;29.78;97312.16;5003563;28;20475;-70
2022/05/03 09:12:47;;;;;;;3.67;3.37;;;;;;;26.30;29.70;97318.66;5006738;28;20471;-69
2022/05/03 09:15:13;;;;;;;3.60;3.30;;;;;;;26.39;30.19;97313.66;5011843;28;20766;-70
2022/05/03 09:17:46;;;;;;;3.77;3.47;;;;;;;26.55;28.28;97306.56;5011620;28;20954;-69
2022/05/03 09:26:20;;;;;;;4.40;4.10;;;;;;;27.01;28.53;97305.41;5008807;28;20993;-70
2022/05/03 09:28:58;;;;;;;4.07;3.73;;;;;;;27.15;28.37;97303.91;5006379;28;20442;-70
2022/05/03 09:31:27;;;;;;;4.10;3.73;;;;;;;27.19;27.84;97299.63;5008225;28;20470;-69
2022/05/03 09:33:53;;;;;;;4.27;3.87;;;;;;;27.21;27.90;97302.88;5010812;28;20450;-69
2022/05/03 09:36:19;;;;;;;7.97;4.33;;;;;;;27.35;28.08;97303.22;5008457;28;20533;-69
2022/05/03 09:38:48;;;;;;;4.30;3.80;;;;;;;27.44;27.90;97307.09;5011151;28;20472;-70
2022/05/03 09:41:15;;;;;;;5.83;4.10;;;;;;;27.39;27.64;97301.66;5010935;28;20287;-69
2022/05/03 09:44:02;;;;;;;4.17;3.63;;;;;;;27.44;27.18;97293.66;4977058;28;20437;-70
2022/05/03 09:46:29;;;;;;;6.03;3.43;;;;;;;27.46;27.29;97298.75;4992721;28;20546;-69
2022/05/03 09:48:55;;;;;;;5.30;3.40;;;;;;;27.67;27.43;97301.56;4993472;28;20822;-69
2022/05/03 09:51:22;;;;;;;3.93;3.60;;;;;;;27.56;26.89;97292.63;5010694;28;20780;-70
2022/05/03 09:53:58;;;;;;;5.73;3.30;;;;;;;27.30;26.54;97289.75;5011169;28;20797;-69
2022/05/03 09:56:26;;;;;;;3.50;3.00;;;;;;;27.68;26.49;97290.56;5010417;28;20509;-69
2022/05/03 09:58:56;;;;;;;4.50;2.97;;;;;;;27.97;26.58;97297.41;5004492;28;20448;-68
2022/05/03 10:01:22;;;;;;;5.40;3.23;;;;;;;28.15;26.38;97288.06;5010819;28;20451;-68
2022/05/03 10:03:48;;;;;;;4.10;3.70;;;;;;;28.38;25.92;97294.06;4993224;28;20467;-68
2022/05/03 10:06:14;;;;;;;3.63;3.10;;;;;;;28.47;24.26;97287.09;5010872;28;20673;-68
2022/05/03 10:08:40;;;;;;;3.93;3.27;;;;;;;28.56;24.36;97290.06;4987508;28;20451;-71
2022/05/03 10:11:06;;;;;;;3.97;3.67;;;;;;;28.57;24.70;97283.59;4993448;28;20239;-68
2022/05/03 10:13:31;;;;;;;3.53;3.23;;;;;;;28.61;24.10;97288.19;5010666;28;20431;-69
2022/05/03 10:21:34;;;;;;;3.43;3.13;;;;;;;27.90;24.75;97276.94;4994265;28;20920;-69
2022/05/03 10:24:09;;;;;;;3.93;3.63;;;;;;;28.08;24.84;97276.72;5010410;28;20473;-71
2022/05/03 10:26:52;;;;;;;4.00;3.70;;;;;;;28.16;25.14;97276.22;5008634;28;20613;-69
2022/05/03 10:29:25;;;;;;;5.43;3.43;;;;;;;28.46;25.29;97272.00;5009827;28;20860;-70
2022/05/03 10:32:00;;;;;;;4.50;4.10;;;;;;;28.66;25.59;97272.03;5004139;28;20472;-69
2022/05/03 10:34:44;;;;;;;5.47;4.37;;;;;;;28.70;25.21;97260.72;5005603;28;20446;-71
2022/05/03 10:37:11;;;;;;;6.00;4.43;;;;;;;28.59;25.32;97266.09;5008306;28;20582;-69
2022/05/03 10:39:48;;;;;;;6.07;4.37;;;;;;;28.57;24.78;97262.84;5010555;28;20439;-68
2022/05/03 10:42:15;;;;;;;4.03;3.77;;;;;;;28.61;24.98;97255.03;5009154;28;20427;-69
2022/05/03 10:44:52;;;;;;;5.70;4.07;;;;;;;28.61;24.98;97255.03;5010521;28;20490;-69
2022/05/03 10:47:20;;;;;;;4.50;4.10;;;;;;;28.52;24.51;97265.53;5010433;28;20442;-69
2022/05/03 10:50:11;;;;;;;6.33;4.07;;;;;;;28.60;24.85;97251.53;5010341;28;20442;-68
2022/05/03 10:52:36;;;;;;;4.20;3.90;;;;;;;28.75;25.60;97252.63;5005215;28;20493;-70
2022/05/03 10:55:08;;;;;;;4.30;4.00;;;;;;;28.69;25.19;97251.00;5010053;28;20423;-69
2022/05/03 10:58:11;;;;;;;8.77;4.17;;;;;;;28.80;24.91;97249.94;5010111;28;20674;-70
2022/05/03 11:01:04;;;;;;;3.93;3.63;;;;;;;29.06;25.22;97248.03;5010957;28;20411;-68
2022/05/03 11:03:31;;;;;;;4.40;4.00;;;;;;;29.33;24.82;97246.91;5012936;28;20423;-69
2022/05/03 11:06:18;;;;;;;5.77;3.80;;;;;;;29.57;24.98;97240.94;5008847;28;20469;-69
2022/05/03 11:14:05;;;;;;;4.23;3.93;;;;;;;29.77;23.53;97234.66;5013800;28;20445;-70
2022/05/03 11:16:40;;;;;;;4.70;3.90;;;;;;;29.77;23.55;97228.47;5013606;28;20438;-69
2022/05/03 11:19:13;;;;;;;4.17;3.87;;;;;;;29.92;23.94;97231.09;5013362;28;20200;-69
2022/05/03 11:21:39;;;;;;;4.00;3.63;;;;;;;29.95;23.48;97229.75;5002160;28;20440;-69
2022/05/03 11:24:05;;;;;;;4.40;4.10;;;;;;;29.54;22.50;97226.09;4989163;28;20434;-70
2022/05/03 11:26:31;;;;;;;4.50;4.17;;;;;;;29.25;22.87;97218.59;4996139;28;20435;-67
2022/05/03 11:28:59;;;;;;;4.27;3.87;;;;;;;29.44;23.76;97209.94;5013645;28;20219;-69
2022/05/03 11:31:28;;;;;;;5.63;3.60;;;;;;;29.57;23.40;97208.53;4988756;28;20219;-70
2022/05/03 11:33:58;;;;;;;5.10;4.60;;;;;;;29.79;23.43;97210.88;5013285;28;20443;-69
2022/05/03 11:36:25;;;;;;;4.50;4.10;;;;;;;29.75;22.93;97204.41;5010670;28;20438;-69
2022/05/03 11:38:52;;;;;;;7.17;4.20;;;;;;;29.90;23.17;97206.25;5013948;28;20869;-70
2022/05/03 11:41:21;;;;;;;3.97;3.57;;;;;;;29.88;22.90;97205.72;5013293;28;20435;-68
2022/05/03 11:43:47;;;;;;;3.67;3.37;;;;;;;30.01;23.23;97193.50;5013509;28;20427;-69
2022/05/03 11:46:16;;;;;;;3.50;3.20;;;;;;;30.24;24.46;97191.25;5013033;28;20442;-70
2022/05/03 11:48:43;;;;;;;3.80;3.50;;;;;;;30.33;22.80;97193.03;5013150;28;20200;-69
2022/05/03 11:56:37;;;;;;;3.50;3.20;;;;;;;30.53;21.90;97195.88;5007049;28;20436;-71
2022/05/03 11:59:03;;;;;;;5.80;3.20;;;;;;;30.25;21.47;97190.13;5012522;28;20701;-70
2022/05/03 12:01:33;;;;;;;3.30;3.00;;;;;;;30.30;22.71;97192.81;5012909;28;20177;-69
2022/05/03 12:03:59;;;;;;;18.10;3.27;;;;;;;30.50;23.13;97195.34;5012537;28;20438;-68
2022/05/03 12:06:43;;;;;;;3.80;3.50;;;;;;;30.72;20.47;97196.84;5012679;28;20445;-69
2022/05/03 12:09:17;;;;;;;7.77;4.30;;;;;;;30.86;20.76;97185.34;5012536;28;20670;-69
2022/05/03 12:14:37;;;;;;;4.10;3.70;;;;;;;30.52;22.11;97178.84;5012981;28;20997;-68
2022/05/03 12:17:03;;;;;;;6.10;3.57;;;;;;;30.42;22.05;97174.31;5012632;28;20503;-69